logo dgac
Jueves 26 de Abril del 2018
Buscar por aerodromo o helipuerto
Ingrese nombre de aeródromo, localidad o designador OACI:
SPECI del 26-04-2018 a las 13:10 UTC
SPECI SCIE 261310Z 01017G28KT 340V040 9999 OVC015 14/13 Q1013
Viento: dirección 010 grados, velocidad 17 nudos, con ráfagas de velocidad máxima de 28Nudos
Viento con dirección variable entre 340 y 040 grados
Visibilidad: 10 km o más
Nubes: Cubierto a 1500 pies sobre el nivel del aeródromo
Temperatura: 14 °C
Rocío: 13 °C
Humedad_relativa: 94%
Presión: 1013 hPa
METAR del 26-04-2018 a las 13:00 UTC
METAR SCIE 261300Z 01018KT 4000 -RA OVC015 14/13 Q1013
Viento: dirección 010 grados, velocidad 18 nudos
Visibilidad: 4000 metros
Débil Lluvia
Nubes: Cubierto a 1500 pies sobre el nivel del aeródromo
Temperatura: 14 °C
Rocío: 13 °C
Humedad_relativa: 94%
Presión: 1013 hPa
METAR del 26-04-2018 a las 12:00 UTC
METAR SCIE 261200Z 02013KT 9999 BKN010 BKN015 14/12 Q1013
Viento: dirección 020 grados, velocidad 13 nudos
Visibilidad: 10 km o más
Nubes: Nublado a 1000 pies sobre el nivel del aeródromo
Nubes: Nublado a 1500 pies sobre el nivel del aeródromo
Temperatura: 14 °C
Rocío: 12 °C
Humedad_relativa: 88%
Presión: 1013 hPa
METAR del 26-04-2018 a las 12:00 UTC
METAR SCIE 261200Z 02013KT 9999 BKN010 BKN015 14/12 Q1013
Viento: dirección 020 grados, velocidad 13 nudos
Visibilidad: 10 km o más
Nubes: Nublado a 1000 pies sobre el nivel del aeródromo
Nubes: Nublado a 1500 pies sobre el nivel del aeródromo
Temperatura: 14 °C
Rocío: 12 °C
Humedad_relativa: 88%
Presión: 1013 hPa
METAR del 26-04-2018 a las 11:00 UTC
METAR SCIE 261100Z 02014KT 9999 BKN012 BKN020 14/13 Q1013 RESHRA
Viento: dirección 020 grados, velocidad 14 nudos
Visibilidad: 10 km o más
Nubes: Nublado a 1200 pies sobre el nivel del aeródromo
Nubes: Nublado a 2000 pies sobre el nivel del aeródromo
Temperatura: 14 °C
Rocío: 13 °C
Humedad_relativa: 94%
Presión: 1013 hPa
Se observó recientemente ChubascosLluvia
SPECI del 26-04-2018 a las 10:19 UTC
SPECI SCIE 261019Z 02016KT 9999 -DZ OVC009 14/12 Q1013
Viento: dirección 020 grados, velocidad 16 nudos
Visibilidad: 10 km o más
Débil LLovizna
Nubes: Cubierto a 900 pies sobre el nivel del aeródromo
Temperatura: 14 °C
Rocío: 12 °C
Humedad_relativa: 88%
Presión: 1013 hPa
METAR del 26-04-2018 a las 10:00 UTC
METAR SCIE 261000Z 02014KT 9999 OVC007 13/12 Q1013
Viento: dirección 020 grados, velocidad 14 nudos
Visibilidad: 10 km o más
Nubes: Cubierto a 700 pies sobre el nivel del aeródromo
Temperatura: 13 °C
Rocío: 12 °C
Humedad_relativa: 94%
Presión: 1013 hPa
METAR del 26-04-2018 a las 09:00 UTC
METAR SCIE 260900Z 03014KT 9999 OVC007 13/11 Q1013
Viento: dirección 030 grados, velocidad 14 nudos
Visibilidad: 10 km o más
Nubes: Cubierto a 700 pies sobre el nivel del aeródromo
Temperatura: 13 °C
Rocío: 11 °C
Humedad_relativa: 88%
Presión: 1013 hPa
METAR del 26-04-2018 a las 08:00 UTC
METAR SCIE 260800Z 03013KT 8000 OVC009 13/11 Q1013
Viento: dirección 030 grados, velocidad 13 nudos
Visibilidad: 8000 metros
Nubes: Cubierto a 900 pies sobre el nivel del aeródromo
Temperatura: 13 °C
Rocío: 11 °C
Humedad_relativa: 88%
Presión: 1013 hPa
METAR del 26-04-2018 a las 07:00 UTC
METAR SCIE 260700Z 03010KT 9999 OVC010 13/11 Q1013
Viento: dirección 030 grados, velocidad 10 nudos
Visibilidad: 10 km o más
Nubes: Cubierto a 1000 pies sobre el nivel del aeródromo
Temperatura: 13 °C
Rocío: 11 °C
Humedad_relativa: 88%
Presión: 1013 hPa